Time;durP1;ratioP1;P1;durP2;ratioP2;P2;SDS_P1;SDS_P2;PMS_P1;PMS_P2;Temp;Humidity;BMP_temperature;BMP_pressure;BME280_temperature;BME280_humidity;BME280_pressure;Samples;Min_cycle;Max_cycle;Signal;HPM_P1;HPM_P2
2022/09/12 00:00:30;;;;;;;1999.90;999.90;;;17.80;99.90;;;;;;5114722;28;20476;-82
2022/09/12 00:02:57;;;;;;;1999.90;999.90;;;17.80;99.90;;;;;;5097322;28;20036;-81
2022/09/12 00:05:23;;;;;;;1999.90;999.90;;;17.70;99.90;;;;;;5114269;28;20050;-82
2022/09/12 00:07:49;;;;;;;1999.90;999.90;;;17.70;99.90;;;;;;5113503;28;20044;-81
2022/09/12 00:10:16;;;;;;;1999.90;999.90;;;17.70;99.90;;;;;;5114253;28;20096;-82
2022/09/12 00:12:42;;;;;;;1999.90;999.90;;;17.70;99.90;;;;;;5114519;28;20130;-80
2022/09/12 00:15:09;;;;;;;1999.90;948.03;;;17.70;99.90;;;;;;5114813;28;20515;-82
2022/09/12 00:17:36;;;;;;;1999.90;999.90;;;17.70;99.90;;;;;;5114091;28;20047;-83
2022/09/12 00:20:04;;;;;;;1999.90;999.90;;;17.70;99.90;;;;;;5096798;28;20058;-80
2022/09/12 00:22:29;;;;;;;1999.90;999.90;;;17.70;99.90;;;;;;5113891;28;20043;-82
2022/09/12 00:24:55;;;;;;;1999.90;999.90;;;17.70;99.90;;;;;;5114811;28;20039;-82
2022/09/12 00:27:21;;;;;;;1999.90;999.90;;;17.70;99.90;;;;;;5112267;28;20135;-81
2022/09/12 00:29:46;;;;;;;1999.90;999.90;;;17.60;99.90;;;;;;5115143;28;20069;-81
2022/09/12 00:32:12;;;;;;;1999.90;999.90;;;17.60;99.90;;;;;;5096644;28;20039;-81
2022/09/12 00:34:38;;;;;;;1999.90;999.90;;;17.60;99.90;;;;;;5114759;28;20388;-81
2022/09/12 00:37:03;;;;;;;1999.90;999.90;;;17.60;99.90;;;;;;5114127;28;20039;-81
2022/09/12 00:39:29;;;;;;;1999.90;999.90;;;18.00;99.90;;;;;;5096265;28;20044;-82
2022/09/12 00:41:55;;;;;;;1999.90;999.90;;;17.60;99.90;;;;;;5114848;28;20047;-81
2022/09/12 00:44:21;;;;;;;1999.90;999.90;;;17.60;99.90;;;;;;5114386;28;20130;-81
2022/09/12 00:47:09;;;;;;;1999.90;898.47;;;17.60;99.90;;;;;;5114395;28;20504;-81
2022/09/12 00:50:01;;;;;;;1999.90;942.37;;;17.50;99.90;;;;;;5114499;28;20392;-83
2022/09/12 00:52:33;;;;;;;1999.90;999.90;;;17.50;99.90;;;;;;5099531;28;20062;-81
2022/09/12 00:55:01;;;;;;;1999.90;848.08;;;17.40;99.90;;;;;;5079161;28;20400;-82
2022/09/12 00:57:33;;;;;;;1999.90;892.72;;;17.40;99.90;;;;;;5094775;28;20047;-81
2022/09/12 01:00:10;;;;;;;1999.90;920.28;;;17.40;99.90;;;;;;5095510;28;20047;-82
2022/09/12 01:02:36;;;;;;;1999.90;999.90;;;17.40;99.90;;;;;;5114145;28;20040;-81
2022/09/12 01:05:02;;;;;;;1999.90;914.33;;;17.40;99.90;;;;;;5095686;28;20059;-81
2022/09/12 01:07:28;;;;;;;1999.90;868.03;;;17.40;99.90;;;;;;5111947;28;20050;-87
2022/09/12 01:09:54;;;;;;;1999.90;894.20;;;17.40;99.90;;;;;;5113646;28;20095;-81
2022/09/12 01:12:20;;;;;;;1999.90;901.08;;;17.40;99.90;;;;;;5113215;28;20040;-83
2022/09/12 01:14:46;;;;;;;1999.90;962.58;;;17.30;99.90;;;;;;5113505;28;20054;-82
2022/09/12 01:17:13;;;;;;;1999.90;964.42;;;17.40;99.90;;;;;;5113414;28;20051;-87
2022/09/12 01:19:48;;;;;;;1999.90;859.08;;;17.40;99.90;;;;;;5113021;28;20036;-81
2022/09/12 01:22:57;;;;;;;1999.90;904.88;;;17.30;99.90;;;;;;5111585;28;20493;-81
2022/09/12 01:25:44;;;;;;;1999.90;895.07;;;17.30;99.90;;;;;;5093767;28;20134;-81
2022/09/12 01:28:17;;;;;;;1999.90;996.25;;;17.30;99.90;;;;;;5112718;28;20065;-81
2022/09/12 01:31:07;;;;;;;1999.90;999.90;;;17.30;99.90;;;;;;5095050;28;20052;-82
2022/09/12 01:33:57;;;;;;;1999.90;984.70;;;17.30;99.90;;;;;;5101320;28;20047;-85
2022/09/12 01:36:35;;;;;;;1999.90;939.45;;;17.30;99.90;;;;;;5094376;28;20579;-81
2022/09/12 01:39:27;;;;;;;1999.90;955.50;;;17.20;99.90;;;;;;5112260;28;20131;-80
2022/09/12 01:42:05;;;;;;;1999.90;999.90;;;17.20;99.90;;;;;;5112977;28;20047;-81
2022/09/12 01:44:37;;;;;;;1999.90;993.88;;;17.20;99.90;;;;;;5112299;28;20054;-81
2022/09/12 01:47:21;;;;;;;1999.90;999.90;;;17.20;99.90;;;;;;5111742;28;20501;-82
2022/09/12 01:49:59;;;;;;;1999.90;999.90;;;17.20;99.90;;;;;;5112948;28;20044;-81
2022/09/12 01:52:27;;;;;;;1999.90;999.90;;;17.30;99.90;;;;;;5077313;28;20055;-81
2022/09/12 01:55:22;;;;;;;1999.90;999.90;;;17.30;99.90;;;;;;5077995;28;20044;-81
2022/09/12 01:57:57;;;;;;;1999.90;999.90;;;17.40;99.90;;;;;;5112935;28;20055;-81
2022/09/12 02:00:23;;;;;;;1999.90;999.90;;;17.50;1.00;;;;;;5112153;28;20389;-80
2022/09/12 02:03:11;;;;;;;1999.90;999.90;;;17.50;1.00;;;;;;5077697;28;20069;-80
2022/09/12 02:05:50;;;;;;;1999.90;999.90;;;17.50;1.00;;;;;;5100868;28;20043;-81
2022/09/12 02:08:20;;;;;;;1999.90;999.90;;;17.50;1.00;;;;;;5094106;28;20058;-84
2022/09/12 02:10:53;;;;;;;1999.90;999.90;;;17.60;1.00;;;;;;5111747;28;20077;-81
2022/09/12 02:13:34;;;;;;;1999.90;999.90;;;17.40;1.00;;;;;;5112422;28;20059;-81
2022/09/12 02:16:34;;;;;;;1999.90;999.90;;;17.50;1.00;;;;;;5095491;28;20383;-80
2022/09/12 02:19:08;;;;;;;1999.90;999.90;;;17.50;1.00;;;;;;5112081;28;20055;-80
2022/09/12 02:21:36;;;;;;;1999.90;999.90;;;17.40;1.00;;;;;;5112048;28;20078;-80
2022/09/12 02:24:07;;;;;;;1999.90;999.90;;;17.40;1.00;;;;;;5111924;28;20119;-82
2022/09/12 02:26:37;;;;;;;1999.90;999.90;;;17.50;1.00;;;;;;5111260;28;20482;-81
2022/09/12 02:29:04;;;;;;;1999.90;999.90;;;17.40;1.00;;;;;;5094041;28;20079;-81
2022/09/12 02:32:09;;;;;;;1999.90;999.90;;;17.50;1.00;;;;;;5111925;28;20043;-87
2022/09/12 02:34:58;;;;;;;1999.90;999.90;;;17.60;1.00;;;;;;5048803;28;20404;-85
2022/09/12 02:37:57;;;;;;;1999.90;999.90;;;17.60;1.00;;;;;;5111875;28;20142;-81
2022/09/12 02:40:24;;;;;;;1999.90;999.90;;;17.50;1.00;;;;;;5112100;28;20046;-81
2022/09/12 02:42:50;;;;;;;1999.90;999.90;;;17.60;1.00;;;;;;5093771;28;20083;-81
2022/09/12 02:45:16;;;;;;;1999.90;999.90;;;17.60;1.00;;;;;;5112305;28;20452;-80
2022/09/12 02:47:58;;;;;;;1999.90;999.90;;;17.60;1.00;;;;;;5112014;28;20450;-80
2022/09/12 02:50:25;;;;;;;1962.80;588.05;;;17.60;1.00;;;;;;5112526;28;20128;-80
2022/09/12 02:52:53;;;;;;;1999.90;999.90;;;17.60;1.00;;;;;;5112136;28;20048;-81
2022/09/12 02:55:19;;;;;;;1999.90;825.70;;;17.60;1.00;;;;;;5112565;28;20040;-80
2022/09/12 02:57:44;;;;;;;1999.90;999.90;;;17.60;23.20;;;;;;5112488;28;20503;-81
2022/09/12 03:00:11;;;;;;;1999.90;808.88;;;17.60;10.30;;;;;;5112498;28;20074;-80
2022/09/12 03:03:08;;;;;;;1999.90;833.05;;;17.60;22.10;;;;;;5094221;28;20090;-80
2022/09/12 03:05:40;;;;;;;1999.90;999.90;;;17.60;19.30;;;;;;5103832;28;20051;-80
2022/09/12 03:08:20;;;;;;;1898.53;582.22;;;17.60;9.80;;;;;;5111432;28;20105;-80
2022/09/12 03:11:25;;;;;;;1999.90;999.90;;;17.60;54.60;;;;;;5111219;28;20043;-82
2022/09/12 03:14:19;;;;;;;1999.90;999.90;;;17.60;34.00;;;;;;5092961;28;20057;-80
2022/09/12 03:17:09;;;;;;;1999.90;999.90;;;17.50;83.40;;;;;;5090634;28;20147;-80
2022/09/12 03:19:59;;;;;;;1999.90;803.30;;;17.50;80.40;;;;;;5089977;28;20393;-84
2022/09/12 03:23:07;;;;;;;1999.90;999.90;;;17.50;98.00;;;;;;5089646;28;20051;-81
2022/09/12 03:25:43;;;;;;;1999.90;999.90;;;17.50;75.70;;;;;;5028297;28;20045;-82
2022/09/12 03:28:15;;;;;;;1999.90;999.90;;;17.50;93.50;;;;;;5078976;28;20492;-80
2022/09/12 03:30:47;;;;;;;1999.90;999.90;;;17.50;99.90;;;;;;5092667;28;20135;-80
2022/09/12 03:33:15;;;;;;;1999.90;999.90;;;17.60;99.90;;;;;;5094898;28;20473;-81
2022/09/12 03:35:41;;;;;;;1977.85;821.97;;;17.50;99.90;;;;;;5094175;28;20051;-81
2022/09/12 03:38:07;;;;;;;1999.90;999.90;;;17.60;99.90;;;;;;5094513;28;20044;-81
2022/09/12 03:40:37;;;;;;;1999.90;590.72;;;17.60;99.90;;;;;;5094876;28;20503;-82
2022/09/12 03:43:05;;;;;;;1999.90;999.90;;;18.00;99.90;;;;;;5093656;28;20036;-87
2022/09/12 03:45:30;;;;;;;1999.90;999.90;;;17.60;99.90;;;;;;5094888;28;20066;-81
2022/09/12 03:47:56;;;;;;;1999.90;999.90;;;17.60;99.90;;;;;;5094560;28;20048;-80
2022/09/12 03:50:22;;;;;;;1999.90;999.90;;;17.60;99.90;;;;;;5094299;28;20056;-83
2022/09/12 03:52:48;;;;;;;1999.90;799.08;;;17.70;99.90;;;;;;5092719;28;20113;-80
2022/09/12 03:55:13;;;;;;;1999.90;999.90;;;17.60;99.90;;;;;;5076927;28;20097;-80
2022/09/12 03:57:39;;;;;;;1999.90;229.23;;;17.60;99.90;;;;;;5076202;28;20139;-79
2022/09/12 04:00:07;;;;;;;1999.90;999.90;;;17.60;99.90;;;;;;5093744;28;20044;-83
2022/09/12 04:02:33;;;;;;;1999.90;999.90;;;17.60;99.90;;;;;;5094514;28;20088;-80
2022/09/12 04:04:59;;;;;;;1999.90;999.90;;;17.50;99.90;;;;;;5094323;28;20098;-80
2022/09/12 04:07:25;;;;;;;1999.90;999.90;;;17.50;99.90;;;;;;5093966;28;20504;-81
2022/09/12 04:09:52;;;;;;;1999.90;802.33;;;17.50;99.90;;;;;;5094585;28;20055;-81
2022/09/12 04:12:20;;;;;;;1929.55;786.65;;;17.50;99.90;;;;;;5095145;28;20051;-81
2022/09/12 04:14:46;;;;;;;1999.90;999.90;;;17.40;99.90;;;;;;5113696;28;20047;-83
2022/09/12 04:17:13;;;;;;;1999.90;999.90;;;17.40;99.90;;;;;;5114539;28;20201;-81
2022/09/12 04:19:38;;;;;;;1999.90;999.90;;;17.40;99.90;;;;;;5096984;28;20373;-82
2022/09/12 04:22:04;;;;;;;1999.90;999.90;;;17.30;99.90;;;;;;5113964;28;20050;-82
2022/09/12 04:24:30;;;;;;;1999.90;801.53;;;17.20;99.90;;;;;;5095497;28;20040;-82
2022/09/12 04:26:56;;;;;;;1999.90;999.90;;;17.20;99.90;;;;;;5113922;28;20039;-81
2022/09/12 04:29:22;;;;;;;1999.90;999.90;;;17.20;99.90;;;;;;5096484;28;20126;-81
2022/09/12 04:31:47;;;;;;;1999.90;999.90;;;17.20;99.90;;;;;;5112808;28;20134;-80
2022/09/12 04:34:14;;;;;;;1999.90;999.90;;;17.30;99.90;;;;;;5113487;28;20046;-81
2022/09/12 04:36:40;;;;;;;1999.90;999.90;;;17.30;99.90;;;;;;5113733;28;20058;-83
2022/09/12 04:39:06;;;;;;;1999.90;999.90;;;17.30;99.90;;;;;;5113668;28;20039;-81
2022/09/12 04:41:35;;;;;;;1999.90;999.90;;;17.30;99.90;;;;;;5112502;28;20048;-83
2022/09/12 04:44:04;;;;;;;1999.90;793.80;;;17.30;99.90;;;;;;5114374;28;20093;-81
2022/09/12 04:46:36;;;;;;;1999.90;999.90;;;17.30;99.90;;;;;;5114241;28;20044;-81
2022/09/12 04:49:02;;;;;;;1999.90;999.90;;;17.30;99.90;;;;;;5114009;28;20047;-82
2022/09/12 04:51:30;;;;;;;1999.90;999.90;;;17.30;99.90;;;;;;5095732;28;20055;-82
2022/09/12 04:54:02;;;;;;;1999.90;999.90;;;17.30;99.90;;;;;;5095678;28;20395;-83
2022/09/12 04:56:29;;;;;;;1999.90;999.90;;;17.50;99.90;;;;;;5113644;28;20052;-82
2022/09/12 04:58:59;;;;;;;1937.10;427.23;;;17.50;99.90;;;;;;5095715;28;20473;-81
2022/09/12 05:01:26;;;;;;;1999.90;999.90;;;17.50;99.90;;;;;;5096449;28;20457;-80
2022/09/12 05:03:53;;;;;;;1999.90;999.90;;;17.60;99.90;;;;;;5095358;28;20051;-81
2022/09/12 05:06:28;;;;;;;1999.90;999.90;;;17.70;99.90;;;;;;5096214;28;20097;-82
2022/09/12 05:09:02;;;;;;;1999.90;999.90;;;17.70;99.90;;;;;;5112026;28;20126;-89
2022/09/12 05:11:34;;;;;;;1999.90;999.90;;;17.60;99.90;;;;;;5113838;28;20043;-82
2022/09/12 05:14:00;;;;;;;1866.28;570.42;;;17.80;99.90;;;;;;5095011;28;20048;-82
2022/09/12 05:16:27;;;;;;;1999.90;804.40;;;17.90;99.90;;;;;;5095396;28;20065;-82
2022/09/12 05:18:55;;;;;;;1999.90;233.70;;;18.00;99.90;;;;;;5113545;28;20044;-84
2022/09/12 05:21:24;;;;;;;1960.47;272.40;;;18.10;99.90;;;;;;5096406;28;20048;-82
2022/09/12 05:23:55;;;;;;;1999.90;999.90;;;18.10;99.90;;;;;;5113023;28;20047;-81
2022/09/12 05:26:21;;;;;;;1999.90;999.90;;;18.10;99.90;;;;;;5079401;28;20100;-82
2022/09/12 05:28:49;;;;;;;1700.35;542.05;;;18.20;99.90;;;;;;5112768;28;20392;-82
2022/09/12 05:31:16;;;;;;;1999.90;999.90;;;18.20;99.90;;;;;;5113936;28;20083;-83
2022/09/12 05:33:44;;;;;;;1999.90;999.90;;;18.20;94.30;;;;;;5111776;28;20396;-82
2022/09/12 05:36:16;;;;;;;1999.90;999.90;;;18.30;76.10;;;;;;5111996;28;20052;-85
2022/09/12 05:38:42;;;;;;;1999.90;384.23;;;18.30;34.00;;;;;;5094361;28;20078;-82
2022/09/12 05:41:11;;;;;;;1999.90;999.90;;;18.40;27.70;;;;;;5094881;28;20048;-81
2022/09/12 05:43:38;;;;;;;1999.90;999.90;;;18.40;5.20;;;;;;5078720;28;20051;-82
2022/09/12 05:46:15;;;;;;;1999.90;484.20;;;18.40;1.00;;;;;;5113625;28;20046;-81
2022/09/12 05:48:43;;;;;;;1999.90;999.90;;;18.40;1.00;;;;;;5113803;28;20052;-83
2022/09/12 05:51:12;;;;;;;1999.90;999.90;;;18.60;1.00;;;;;;5094233;28;20149;-81
2022/09/12 05:53:39;;;;;;;1999.90;999.90;;;18.50;1.00;;;;;;5113157;28;20050;-82
2022/09/12 05:56:07;;;;;;;;;;;18.50;1.00;;;;;;5094984;28;20547;-81
2022/09/12 05:58:35;;;;;;;1999.90;999.90;;;18.30;1.00;;;;;;5113295;28;19920;-81
2022/09/12 06:01:11;;;;;;;1999.90;999.90;;;18.40;1.00;;;;;;5112808;28;20185;-81
2022/09/12 06:03:48;;;;;;;1757.13;772.70;;;18.50;1.00;;;;;;5113249;28;20043;-82
2022/09/12 06:06:17;;;;;;;1999.90;999.90;;;18.60;1.00;;;;;;5112911;28;20119;-82
2022/09/12 06:08:48;;;;;;;1999.90;999.90;;;18.50;1.00;;;;;;5112847;28;20039;-82
2022/09/12 06:11:17;;;;;;;1999.90;999.90;;;18.60;99.90;;;;;;5112681;28;20050;-80
2022/09/12 06:13:43;;;;;;;1999.90;999.90;;;18.60;99.90;;;;;;5108849;28;20056;-81
2022/09/12 06:16:16;;;;;;;1999.90;999.90;;;18.70;99.90;;;;;;5113111;28;20052;-81
2022/09/12 06:18:50;;;;;;;1697.05;767.60;;;18.70;99.90;;;;;;5113300;28;20036;-81
2022/09/12 06:21:16;;;;;;;1999.90;999.90;;;18.80;99.90;;;;;;5112604;28;20082;-80
2022/09/12 06:23:45;;;;;;;1896.55;774.88;;;18.80;99.90;;;;;;5112992;28;20051;-81
2022/09/12 06:26:11;;;;;;;1999.90;999.90;;;18.90;99.90;;;;;;5095046;28;20380;-82
2022/09/12 06:28:41;;;;;;;1999.90;999.90;;;18.90;99.90;;;;;;5095098;28;20043;-81
2022/09/12 06:31:12;;;;;;;1999.90;999.90;;;18.90;99.90;;;;;;5094603;28;20044;-81
2022/09/12 06:33:40;;;;;;;1999.90;999.90;;;17.40;99.90;;;;;;5095133;28;20087;-81
2022/09/12 06:36:10;;;;;;;1999.90;999.90;;;19.00;99.90;;;;;;5112410;28;20043;-81
2022/09/12 06:38:37;;;;;;;1999.90;999.90;;;19.10;99.90;;;;;;5112669;28;20047;-80
2022/09/12 06:41:06;;;;;;;1999.90;999.90;;;19.10;99.90;;;;;;5112734;28;20458;-81
2022/09/12 06:43:33;;;;;;;1999.90;999.90;;;19.10;99.90;;;;;;5095048;28;20392;-80
2022/09/12 06:46:00;;;;;;;1999.90;999.90;;;19.20;99.90;;;;;;5094456;28;20040;-81
2022/09/12 06:48:26;;;;;;;1999.90;999.90;;;19.20;99.90;;;;;;5112843;28;20047;-80
2022/09/12 06:50:58;;;;;;;1999.90;999.90;;;19.20;99.90;;;;;;5095200;28;20134;-80
2022/09/12 06:53:25;;;;;;;1999.90;999.90;;;19.20;99.90;;;;;;5112664;28;20050;-80
2022/09/12 06:55:59;;;;;;;1999.90;999.90;;;19.30;99.90;;;;;;5113074;28;20086;-80
2022/09/12 06:58:26;;;;;;;1999.90;999.90;;;19.30;99.90;;;;;;5077806;28;20296;-81
2022/09/12 07:00:53;;;;;;;1999.90;999.90;;;19.40;99.90;;;;;;5112954;28;20048;-80
2022/09/12 07:03:19;;;;;;;1999.90;999.90;;;19.40;99.90;;;;;;5112605;28;20043;-81
2022/09/12 07:05:45;;;;;;;1999.90;999.90;;;19.40;99.90;;;;;;5115205;28;20044;-81
2022/09/12 07:08:10;;;;;;;1999.90;999.90;;;19.40;99.90;;;;;;5116261;28;20058;-80
2022/09/12 07:10:36;;;;;;;1999.90;999.90;;;19.40;99.90;;;;;;5098584;28;20400;-81
2022/09/12 07:13:02;;;;;;;1999.90;999.90;;;19.40;99.90;;;;;;5092769;28;20100;-80
2022/09/12 07:15:27;;;;;;;1999.90;999.90;;;19.50;99.90;;;;;;5078232;28;20178;-80
2022/09/12 07:17:53;;;;;;;1999.90;999.90;;;19.50;99.90;;;;;;5096319;28;20048;-80
2022/09/12 07:20:19;;;;;;;1999.90;999.90;;;19.50;99.90;;;;;;5094725;28;20061;-80
2022/09/12 07:22:45;;;;;;;1999.90;999.90;;;19.60;99.90;;;;;;5095923;28;20083;-81
2022/09/12 07:25:11;;;;;;;1999.90;999.90;;;19.60;99.90;;;;;;5078107;28;20055;-83
2022/09/12 07:27:36;;;;;;;1999.90;999.90;;;19.70;97.60;;;;;;5096215;28;20048;-81
2022/09/12 07:30:06;;;;;;;1999.90;999.90;;;19.80;99.90;;;;;;5094684;28;20464;-82
2022/09/12 07:32:32;;;;;;;1999.90;999.90;;;19.90;92.70;;;;;;5077671;28;20048;-80
2022/09/12 07:34:58;;;;;;;1999.90;999.90;;;20.00;91.90;;;;;;5096097;28;20051;-80
2022/09/12 07:37:24;;;;;;;1999.90;999.90;;;20.10;76.40;;;;;;5077332;28;20051;-80
2022/09/12 07:39:50;;;;;;;1999.90;685.20;;;20.40;75.00;;;;;;5077658;28;20044;-80
2022/09/12 07:42:16;;;;;;;1999.90;999.90;;;20.50;14.50;;;;;;5061199;28;20050;-80
2022/09/12 07:44:43;;;;;;;1999.90;999.90;;;20.90;16.80;;;;;;5096238;28;20122;-80
2022/09/12 07:47:09;;;;;;;1999.90;882.57;;;21.10;1.00;;;;;;5096598;28;20044;-81
2022/09/12 07:49:34;;;;;;;1999.90;999.90;;;21.20;1.00;;;;;;5096541;28;20684;-81
2022/09/12 07:52:00;;;;;;;1999.90;999.90;;;21.30;1.00;;;;;;5095489;28;20053;-81
2022/09/12 07:54:26;;;;;;;1999.90;999.90;;;21.30;1.00;;;;;;5094257;28;20044;-81
2022/09/12 07:56:52;;;;;;;1999.90;999.90;;;21.30;1.00;;;;;;5077354;28;20246;-85
2022/09/12 07:59:18;;;;;;;1999.90;999.90;;;21.10;1.00;;;;;;5060887;28;20086;-80
2022/09/12 08:01:43;;;;;;;1999.90;999.90;;;21.10;1.00;;;;;;5095215;28;20048;-81
2022/09/12 08:04:09;;;;;;;1999.90;999.90;;;21.00;1.00;;;;;;5095100;28;20036;-82
2022/09/12 08:06:35;;;;;;;1999.90;999.90;;;21.00;1.00;;;;;;5095255;28;20126;-81
2022/09/12 08:09:02;;;;;;;1999.90;999.90;;;21.00;1.00;;;;;;5094790;28;20047;-80
2022/09/12 08:11:29;;;;;;;1999.90;999.90;;;21.20;1.00;;;;;;5060634;28;20461;-81
2022/09/12 08:13:56;;;;;;;1999.90;999.90;;;21.30;1.00;;;;;;5076759;28;20137;-80
2022/09/12 08:16:25;;;;;;;1999.90;999.90;;;21.50;1.00;;;;;;5093775;28;20139;-80
2022/09/12 08:18:51;;;;;;;1999.90;999.90;;;21.60;1.00;;;;;;5094659;28;20121;-84
2022/09/12 08:21:23;;;;;;;1999.90;999.90;;;21.70;1.00;;;;;;5060111;28;20134;-80
2022/09/12 08:23:58;;;;;;;1999.90;999.90;;;21.80;1.00;;;;;;5094683;28;20048;-80
2022/09/12 08:26:24;;;;;;;1999.90;999.90;;;21.80;99.90;;;;;;5076829;28;20056;-80
2022/09/12 08:28:50;;;;;;;1999.90;999.90;;;21.80;1.00;;;;;;5093624;28;20097;-80
2022/09/12 08:31:19;;;;;;;1999.90;999.90;;;21.90;99.90;;;;;;5094497;28;20055;-80
2022/09/12 08:33:45;;;;;;;1999.90;999.90;;;21.80;99.90;;;;;;5076913;28;20052;-80
2022/09/12 08:36:13;;;;;;;1999.90;999.90;;;21.90;99.90;;;;;;5094921;28;20037;-79
2022/09/12 08:38:44;;;;;;;1999.90;999.90;;;21.90;99.90;;;;;;5059652;28;20098;-80
2022/09/12 08:41:24;;;;;;;1999.90;999.90;;;22.00;99.90;;;;;;5076426;28;20047;-80
2022/09/12 08:44:08;;;;;;;1999.90;999.90;;;22.00;99.90;;;;;;5094706;28;20499;-80
2022/09/12 08:47:11;;;;;;;1999.90;826.97;;;22.00;99.90;;;;;;5094210;28;20420;-80
2022/09/12 08:50:05;;;;;;;1999.90;855.17;;;22.00;99.90;;;;;;5094227;28;20051;-79
2022/09/12 08:52:40;;;;;;;1999.90;907.70;;;22.10;99.90;;;;;;5093841;28;20040;-80
2022/09/12 08:55:20;;;;;;;1999.90;781.67;;;22.20;99.90;;;;;;5094588;28;20036;-81
2022/09/12 08:57:46;;;;;;;1999.90;860.22;;;22.40;99.90;;;;;;5076301;28;20123;-80
2022/09/12 09:00:20;;;;;;;1999.90;895.58;;;22.70;99.90;;;;;;5093436;28;20135;-80
2022/09/12 09:03:26;;;;;;;1875.18;452.95;;;23.00;99.90;;;;;;5094419;28;20075;-80
2022/09/12 09:05:58;;;;;;;1999.90;852.25;;;23.30;99.90;;;;;;5042677;28;20105;-80
2022/09/12 09:08:29;;;;;;;1999.90;811.50;;;23.70;99.90;;;;;;5093074;28;20554;-80
2022/09/12 09:10:58;;;;;;;1999.90;999.90;;;24.10;99.90;;;;;;5094251;28;20110;-81
2022/09/12 09:16:26;;;;;;;1999.90;999.90;;;24.50;99.90;;;;;;5094000;28;20055;-80
2022/09/12 09:18:54;;;;;;;1999.90;999.90;;;24.80;99.90;;;;;;5094000;28;20048;-81
2022/09/12 09:21:41;;;;;;;1999.90;999.90;;;25.00;99.90;;;;;;5075576;28;20365;-80
2022/09/12 09:24:12;;;;;;;1999.90;999.90;;;25.10;99.90;;;;;;5093807;28;20052;-80
2022/09/12 09:26:57;;;;;;;1999.90;999.90;;;25.20;99.90;;;;;;5093157;28;20496;-80
2022/09/12 09:29:33;;;;;;;1999.90;999.90;;;25.20;99.90;;;;;;5075476;28;20087;-81
2022/09/12 09:32:03;;;;;;;1999.90;999.90;;;25.10;99.90;;;;;;5059378;28;20084;-81
2022/09/12 09:34:30;;;;;;;1999.90;999.90;;;24.90;99.90;;;;;;5093455;28;20442;-80
2022/09/12 09:37:38;;;;;;;1999.90;999.90;;;25.30;99.90;;;;;;5075044;28;20109;-80
2022/09/12 09:40:52;;;;;;;1999.90;999.90;;;26.20;99.90;;;;;;5054325;28;20052;-80
2022/09/12 09:43:23;;;;;;;1999.90;999.90;;;27.50;99.90;;;;;;5068375;28;20063;-79
2022/09/12 09:45:51;;;;;;;1999.90;999.90;;;28.10;99.90;;;;;;5093591;28;20123;-81
2022/09/12 09:48:18;;;;;;;1999.90;999.90;;;27.50;99.90;;;;;;5093208;28;20048;-80
2022/09/12 09:50:46;;;;;;;1999.90;999.90;;;27.30;99.90;;;;;;5093030;28;20101;-80
2022/09/12 09:53:37;;;;;;;1999.90;999.90;;;27.00;99.90;;;;;;5092960;28;20055;-80
2022/09/12 09:56:25;;;;;;;1999.90;999.90;;;26.90;99.90;;;;;;5093163;28;20040;-79
2022/09/12 09:58:51;;;;;;;1999.90;999.90;;;27.40;99.90;;;;;;5093292;28;20051;-80
2022/09/12 10:01:18;;;;;;;1999.90;999.90;;;27.70;99.90;;;;;;5075109;28;20050;-80
2022/09/12 10:03:52;;;;;;;1999.90;999.90;;;27.50;99.90;;;;;;5091395;28;20409;-81
2022/09/12 10:06:31;;;;;;;1999.90;999.90;;;27.10;99.90;;;;;;5075209;28;20124;-80
2022/09/12 10:09:21;;;;;;;1999.90;999.90;;;26.50;99.90;;;;;;5092693;28;20051;-80
2022/09/12 10:11:47;;;;;;;1999.90;999.90;;;26.60;99.90;;;;;;5093012;28;20074;-81
2022/09/12 10:14:36;;;;;;;1999.90;999.90;;;27.60;99.90;;;;;;5074767;28;20059;-80
2022/09/12 10:17:20;;;;;;;;;;;28.50;99.90;;;;;;5075261;28;20048;-80
2022/09/12 10:19:46;;;;;;;1999.90;999.90;;;29.10;99.90;;;;;;5092877;28;19920;-80
2022/09/12 10:22:18;;;;;;;1999.90;999.90;;;29.70;99.90;;;;;;5074702;28;20044;-80
2022/09/12 10:24:57;;;;;;;1999.90;999.90;;;30.60;99.00;;;;;;5058292;28;20157;-79
2022/09/12 10:27:30;;;;;;;1999.90;999.90;;;30.60;95.30;;;;;;5074904;28;20052;-81
2022/09/12 10:29:58;;;;;;;1999.90;999.90;;;30.30;94.50;;;;;;5092927;28;20051;-80
2022/09/12 10:32:40;;;;;;;1999.90;999.90;;;31.00;89.40;;;;;;5092695;28;20051;-80
2022/09/12 10:35:14;;;;;;;1870.25;821.50;;;31.80;72.10;;;;;;5092566;28;20562;-80
2022/09/12 10:37:55;;;;;;;1999.90;848.65;;;31.90;51.70;;;;;;5074231;28;20044;-80
2022/09/12 10:40:24;;;;;;;1999.90;999.90;;;31.70;44.10;;;;;;5057567;28;20066;-80
2022/09/12 10:42:52;;;;;;;1999.90;999.90;;;31.70;39.30;;;;;;5092354;28;20055;-80
2022/09/12 10:45:19;;;;;;;1999.90;806.15;;;31.20;40.90;;;;;;5092427;28;20075;-80
2022/09/12 10:47:45;;;;;;;1999.90;674.15;;;31.50;29.90;;;;;;5091994;28;20055;-80
2022/09/12 10:50:26;;;;;;;1999.90;813.15;;;32.20;45.30;;;;;;5074848;28;20400;-80
2022/09/12 10:52:53;;;;;;;1999.90;999.90;;;31.90;20.60;;;;;;5091930;28;20052;-79
2022/09/12 10:55:33;;;;;;;1999.90;999.90;;;32.00;21.30;;;;;;5057649;28;20052;-80
2022/09/12 10:58:28;;;;;;;1999.90;999.90;;;32.50;26.30;;;;;;5092647;28;20094;-80
2022/09/12 11:01:04;;;;;;;1999.90;999.90;;;32.30;5.40;;;;;;5053871;28;20059;-80
2022/09/12 11:04:02;;;;;;;1999.90;998.20;;;32.80;4.20;;;;;;5092661;28;20056;-80
2022/09/12 11:06:41;;;;;;;1191.82;893.63;;;32.30;1.00;;;;;;5091616;28;20060;-80
2022/09/12 11:09:22;;;;;;;1999.90;999.90;;;31.70;1.00;;;;;;5074199;28;20044;-81
2022/09/12 11:12:11;;;;;;;1999.90;924.33;;;32.10;1.00;;;;;;5092298;28;20071;-80
2022/09/12 11:14:54;;;;;;;1452.45;874.33;;;32.60;1.00;;;;;;5110528;28;20067;-82
2022/09/12 11:17:26;;;;;;;1999.90;842.60;;;32.10;1.00;;;;;;5112681;28;20096;-80
2022/09/12 11:20:01;;;;;;;1999.90;999.90;;;31.20;1.00;;;;;;5112621;28;20086;-80
2022/09/12 11:23:01;;;;;;;1377.38;999.90;;;32.10;1.00;;;;;;5094546;28;20052;-80
2022/09/12 11:25:45;;;;;;;1820.40;999.90;;;32.50;1.00;;;;;;5094440;28;20039;-85
2022/09/12 11:28:10;;;;;;;1953.47;966.60;;;32.50;1.00;;;;;;5094650;28;20128;-80
2022/09/12 11:30:50;;;;;;;1999.90;999.90;;;32.90;1.00;;;;;;5111099;28;20480;-80
2022/09/12 11:33:42;;;;;;;1604.13;999.90;;;33.40;1.00;;;;;;5113420;28;20053;-80
2022/09/12 11:36:34;;;;;;;1238.57;817.80;;;33.50;1.00;;;;;;5097518;28;20044;-81
2022/09/12 11:39:14;;;;;;;1325.97;699.28;;;33.30;1.00;;;;;;5110315;28;20087;-82
2022/09/12 11:41:49;;;;;;;1814.50;988.67;;;32.50;1.00;;;;;;5076316;28;20432;-80
2022/09/12 11:44:23;;;;;;;1968.88;949.55;;;31.80;1.00;;;;;;5093011;28;20044;-80
2022/09/12 11:46:49;;;;;;;1999.90;999.90;;;31.20;1.00;;;;;;5111427;28;20126;-81
2022/09/12 11:49:21;;;;;;;1798.43;989.42;;;31.20;1.00;;;;;;5112157;28;20480;-80
2022/09/12 11:52:05;;;;;;;1999.90;999.90;;;31.10;1.00;;;;;;5095430;28;20063;-81
2022/09/12 11:54:40;;;;;;;1999.90;999.90;;;31.00;1.00;;;;;;5115915;28;20427;-80
2022/09/12 11:57:31;;;;;;;1999.90;999.90;;;30.70;1.00;;;;;;5097654;28;20056;-80
2022/09/12 12:00:16;;;;;;;1999.90;985.22;;;30.80;1.00;;;;;;5097832;28;20036;-82
2022/09/12 12:03:16;;;;;;;1999.90;999.90;;;30.60;1.00;;;;;;5097793;28;20128;-83
2022/09/12 12:06:11;;;;;;;1999.90;999.90;;;30.40;1.00;;;;;;5115783;28;20050;-81
2022/09/12 12:08:40;;;;;;;1999.90;977.88;;;30.40;1.00;;;;;;5115272;28;20042;-80
2022/09/12 12:11:07;;;;;;;1999.90;909.40;;;30.60;1.00;;;;;;5115379;28;20075;-80
2022/09/12 12:13:45;;;;;;;1999.90;976.65;;;30.60;1.00;;;;;;5097169;28;20048;-81
2022/09/12 12:16:38;;;;;;;1999.90;810.45;;;30.00;1.00;;;;;;5115790;28;20131;-79
2022/09/12 12:19:21;;;;;;;1999.90;999.90;;;29.50;1.00;;;;;;5079563;28;20047;-82
2022/09/12 12:21:49;;;;;;;1999.90;564.35;;;29.00;1.00;;;;;;5082571;28;20476;-81
2022/09/12 12:24:24;;;;;;;1999.90;842.38;;;28.40;1.00;;;;;;5115212;28;20048;-81
2022/09/12 12:26:56;;;;;;;1999.90;672.47;;;28.20;1.00;;;;;;5097288;28;20043;-82
2022/09/12 12:29:22;;;;;;;1970.60;704.42;;;27.90;1.00;;;;;;5115438;28;20053;-81
2022/09/12 12:32:02;;;;;;;1999.90;999.90;;;27.60;1.00;;;;;;5115165;28;20043;-81
2022/09/12 12:34:45;;;;;;;1999.90;999.90;;;27.50;1.00;;;;;;5115068;28;20519;-81